createdAt,value
2022-11-08T00:00:57.488Z,101590.19
2022-11-08T00:03:25.272Z,101590.25
2022-11-08T00:06:13.763Z,101593.13
2022-11-08T00:09:00.002Z,101595.97
2022-11-08T00:11:45.920Z,101595.91
2022-11-08T00:14:13.975Z,101611.47
2022-11-08T00:16:41.580Z,101608.94
2022-11-08T00:19:09.244Z,101607.31
2022-11-08T00:21:36.732Z,101609.38
2022-11-08T00:24:04.517Z,101609.56
2022-11-08T00:26:32.124Z,101610.34
2022-11-08T00:29:00.216Z,101605.97
2022-11-08T00:31:28.195Z,101601.72
2022-11-08T00:33:55.757Z,101605.25
2022-11-08T00:36:23.518Z,101608.50
2022-11-08T00:38:51.149Z,101605.13
2022-11-08T00:41:18.669Z,101617.28
2022-11-08T00:43:46.315Z,101618.19
2022-11-08T00:46:14.202Z,101616.63
2022-11-08T00:48:42.311Z,101617.53
2022-11-08T00:51:12.665Z,101620.44
2022-11-08T00:53:40.854Z,101612.59
2022-11-08T00:56:12.055Z,101612.97
2022-11-08T00:58:41.774Z,101610.41
2022-11-08T01:01:15.945Z,101615.16
2022-11-08T01:03:44.931Z,101612.59
2022-11-08T01:06:14.695Z,101609.19
2022-11-08T01:08:43.938Z,101609.84
2022-11-08T01:11:15.349Z,101609.56
2022-11-08T01:13:44.180Z,101602.50
2022-11-08T01:16:14.992Z,101598.38
2022-11-08T01:18:43.501Z,101603.41
2022-11-08T01:21:12.047Z,101598.09
2022-11-08T01:23:41.251Z,101595.56
2022-11-08T01:26:17.120Z,101589.28
2022-11-08T01:28:45.050Z,101584.13
2022-11-08T01:31:15.920Z,101588.50
2022-11-08T01:33:48.548Z,101581.84
2022-11-08T01:36:22.533Z,101585.59
2022-11-08T01:38:51.405Z,101591.13
2022-11-08T01:41:21.107Z,101596.13
2022-11-08T01:43:51.032Z,101579.00
2022-11-08T01:46:19.051Z,101566.66
2022-11-08T01:49:13.326Z,101567.41
2022-11-08T01:51:47.944Z,101572.78
2022-11-08T01:54:18.177Z,101571.16
2022-11-08T01:56:45.868Z,101573.44
2022-11-08T01:59:16.862Z,101568.69
2022-11-08T02:01:45.249Z,101563.81
2022-11-08T02:04:14.563Z,101557.66
2022-11-08T02:06:44.814Z,101558.22
2022-11-08T02:09:16.269Z,101569.63
2022-11-08T02:11:44.736Z,101560.78
2022-11-08T02:14:12.461Z,101561.34
2022-11-08T02:16:40.391Z,101561.63
2022-11-08T02:19:11.025Z,101564.94
2022-11-08T02:21:56.165Z,101560.28
2022-11-08T02:24:24.459Z,101565.63
2022-11-08T02:26:55.005Z,101558.31
2022-11-08T02:29:31.680Z,101557.22
2022-11-08T02:32:01.087Z,101564.16
2022-11-08T02:34:49.263Z,101561.34
2022-11-08T02:37:20.668Z,101566.28
2022-11-08T02:39:48.783Z,101563.16
2022-11-08T02:42:21.632Z,101557.78
2022-11-08T02:44:49.283Z,101565.84
2022-11-08T02:47:17.046Z,101558.97
2022-11-08T02:49:44.999Z,101553.19
2022-11-08T02:52:13.223Z,101546.06
2022-11-08T02:54:40.797Z,101550.56
2022-11-08T02:57:08.645Z,101540.84
2022-11-08T02:59:36.118Z,101540.91
2022-11-08T03:02:04.649Z,101534.03
2022-11-08T03:04:33.843Z,101523.34
2022-11-08T03:07:01.511Z,101526.63
2022-11-08T03:09:29.648Z,101529.72
2022-11-08T03:11:57.799Z,101533.19
2022-11-08T03:14:25.238Z,101530.28
2022-11-08T03:16:53.124Z,101538.06
2022-11-08T03:19:21.089Z,101531.38
2022-11-08T03:21:49.170Z,101529.38
2022-11-08T03:24:16.719Z,101521.59
2022-11-08T03:26:44.705Z,101524.56
2022-11-08T03:29:12.320Z,101530.78
2022-11-08T03:31:39.770Z,101527.38
2022-11-08T03:34:10.284Z,101535.47
2022-11-08T03:36:38.015Z,101531.59
2022-11-08T03:39:05.700Z,101527.22
2022-11-08T03:41:33.352Z,101535.63
2022-11-08T03:44:00.992Z,101546.34
2022-11-08T03:46:29.109Z,101542.13
2022-11-08T03:48:56.723Z,101542.06
2022-11-08T03:51:24.404Z,101542.44
2022-11-08T03:53:51.926Z,101549.47
2022-11-08T03:56:19.947Z,101550.56
2022-11-08T03:58:47.875Z,101549.47
2022-11-08T04:01:15.965Z,101539.97
2022-11-08T04:03:43.499Z,101550.94
2022-11-08T04:06:11.130Z,101550.56
2022-11-08T04:08:39.206Z,101547.53
2022-11-08T04:11:25.424Z,101550.56
2022-11-08T04:14:11.884Z,101545.19
2022-11-08T04:16:39.599Z,101545.78
2022-11-08T04:19:25.911Z,101541.25
2022-11-08T04:21:54.815Z,101543.06
2022-11-08T04:24:23.090Z,101544.63
2022-11-08T04:26:50.706Z,101539.88
2022-11-08T04:29:18.752Z,101547.59
2022-11-08T04:31:46.377Z,101542.78
2022-11-08T04:34:14.356Z,101537.31
2022-11-08T04:36:41.879Z,101539.13
2022-11-08T04:39:09.493Z,101531.16
2022-11-08T04:41:37.211Z,101538.28
2022-11-08T04:44:05.254Z,101540.69
2022-11-08T04:46:33.129Z,101547.69
2022-11-08T04:49:01.221Z,101545.66
2022-11-08T04:51:33.474Z,101547.63
2022-11-08T04:54:03.222Z,101542.13
2022-11-08T04:56:32.300Z,101543.06
2022-11-08T04:59:00.847Z,101537.59
2022-11-08T05:01:30.348Z,101541.22
2022-11-08T05:03:58.522Z,101550.75
2022-11-08T05:06:30.896Z,101544.50
2022-11-08T05:08:59.604Z,101544.41
2022-11-08T05:11:29.406Z,101550.25
2022-11-08T05:13:57.893Z,101549.53
2022-11-08T05:16:30.766Z,101556.63
2022-11-08T05:19:00.068Z,101550.03
2022-11-08T05:21:46.783Z,101551.03
2022-11-08T05:24:17.083Z,101547.75
2022-11-08T05:26:47.226Z,101551.41
2022-11-08T05:29:16.840Z,101552.00
2022-11-08T05:31:45.261Z,101545.94
2022-11-08T05:34:13.094Z,101556.56
2022-11-08T05:36:40.735Z,101545.44
2022-11-08T05:39:09.093Z,101542.88
2022-11-08T05:41:37.037Z,101540.44
2022-11-08T05:44:04.761Z,101539.53
2022-11-08T05:46:32.306Z,101531.00
2022-11-08T05:49:00.363Z,101535.38
2022-11-08T05:51:27.875Z,101548.28
2022-11-08T05:53:55.373Z,101544.22
2022-11-08T05:56:23.086Z,101536.75
2022-11-08T05:58:50.580Z,101555.66
2022-11-08T06:01:20.549Z,101557.03
2022-11-08T06:03:48.853Z,101548.69
2022-11-08T06:06:19.590Z,101560.81
2022-11-08T06:08:50.710Z,101563.44
2022-11-08T06:11:25.440Z,101558.03
2022-11-08T06:13:55.865Z,101556.44
2022-11-08T06:16:24.340Z,101552.81
2022-11-08T06:18:53.016Z,101553.06
2022-11-08T06:21:21.564Z,101560.47
2022-11-08T06:23:53.881Z,101561.38
2022-11-08T06:26:23.376Z,101556.88
2022-11-08T06:28:51.587Z,101573.41
2022-11-08T06:31:19.160Z,101570.81
2022-11-08T06:33:46.848Z,101574.69
2022-11-08T06:36:14.800Z,101573.34
2022-11-08T06:38:42.768Z,101568.13
2022-11-08T06:41:18.228Z,101575.69
2022-11-08T06:43:45.735Z,101573.28
2022-11-08T06:46:13.382Z,101581.13
2022-11-08T06:48:41.690Z,101583.38
2022-11-08T06:51:09.279Z,101584.19
2022-11-08T06:53:37.186Z,101585.03
2022-11-08T06:56:05.309Z,101590.00
2022-11-08T06:58:32.917Z,101591.09
2022-11-08T07:01:08.068Z,101596.94
2022-11-08T07:03:35.977Z,101589.06
2022-11-08T07:06:05.720Z,101594.97
2022-11-08T07:08:34.157Z,101593.59
2022-11-08T07:11:03.014Z,101593.09
2022-11-08T07:13:31.317Z,101598.06
2022-11-08T07:16:00.696Z,101592.84
2022-11-08T07:18:28.987Z,101597.00
2022-11-08T07:21:02.146Z,101606.25
2022-11-08T07:23:30.131Z,101607.13
2022-11-08T07:26:01.936Z,101612.72
2022-11-08T07:28:30.181Z,101601.72
2022-11-08T07:31:03.442Z,101609.00
2022-11-08T07:33:32.235Z,101605.94
2022-11-08T07:35:59.883Z,101605.31
2022-11-08T07:38:27.572Z,101604.22
2022-11-08T07:41:00.016Z,101605.41
2022-11-08T07:43:28.904Z,101611.91
2022-11-08T07:46:02.169Z,101608.88
2022-11-08T07:48:31.084Z,101606.00
2022-11-08T07:50:58.821Z,101603.69
2022-11-08T07:53:26.428Z,101599.53
2022-11-08T07:55:55.173Z,101599.19
2022-11-08T07:58:22.812Z,101613.03
2022-11-08T08:00:50.573Z,101606.13
2022-11-08T08:03:19.215Z,101606.16
2022-11-08T08:05:56.580Z,101606.06
2022-11-08T08:08:27.656Z,101609.44
2022-11-08T08:11:02.204Z,101600.97
2022-11-08T08:13:30.378Z,101601.03
2022-11-08T08:16:00.643Z,101608.91
2022-11-08T08:18:29.405Z,101603.50
2022-11-08T08:20:57.652Z,101600.59
2022-11-08T08:23:25.265Z,101605.84
2022-11-08T08:25:53.014Z,101604.34
2022-11-08T08:28:20.709Z,101602.56
2022-11-08T08:30:48.211Z,101600.09
2022-11-08T08:33:32.719Z,101600.69
2022-11-08T08:36:04.043Z,101601.38
2022-11-08T08:38:33.161Z,101604.00
2022-11-08T08:41:02.489Z,101614.63
2022-11-08T08:43:32.655Z,101616.78
2022-11-08T08:46:02.250Z,101617.03
2022-11-08T08:48:30.359Z,101622.75
2022-11-08T08:50:58.984Z,101616.72
2022-11-08T08:53:26.981Z,101625.44
2022-11-08T08:55:54.627Z,101624.84
2022-11-08T08:58:22.187Z,101622.94
2022-11-08T09:03:37.558Z,101623.56
2022-11-08T09:06:05.168Z,101620.31
2022-11-08T09:08:32.755Z,101618.84
2022-11-08T09:11:01.840Z,101623.09
2022-11-08T09:13:33.249Z,101617.03
2022-11-08T09:16:02.742Z,101622.97
2022-11-08T09:18:31.366Z,101617.25
2022-11-08T09:21:00.436Z,101618.91
2022-11-08T09:23:28.013Z,101615.69
2022-11-08T09:25:59.926Z,101625.78
2022-11-08T09:28:31.310Z,101616.13
2022-11-08T09:31:04.558Z,101615.53
2022-11-08T09:33:32.674Z,101618.06
2022-11-08T09:36:02.508Z,101617.13
2022-11-08T09:38:30.895Z,101631.25
2022-11-08T09:41:07.997Z,101625.81
2022-11-08T09:44:31.945Z,101622.19
2022-11-08T09:47:10.555Z,101620.59
2022-11-08T09:49:43.099Z,101612.69
2022-11-08T09:52:16.905Z,101608.22
2022-11-08T09:54:47.130Z,101607.50
2022-11-08T09:57:35.794Z,101618.84
2022-11-08T10:00:06.972Z,101617.41
2022-11-08T10:02:36.803Z,101618.50
2022-11-08T10:05:09.564Z,101615.47
2022-11-08T10:07:51.524Z,101619.84
2022-11-08T10:10:48.532Z,101615.47
2022-11-08T10:13:38.234Z,101605.72
2022-11-08T10:16:21.396Z,101605.75
2022-11-08T10:19:23.314Z,101601.00
2022-11-08T10:22:04.848Z,101592.47
2022-11-08T10:24:35.822Z,101582.84
2022-11-08T10:27:10.284Z,101590.31
2022-11-08T10:29:43.840Z,101583.09
2022-11-08T10:32:18.922Z,101587.25
2022-11-08T10:35:16.551Z,101580.56
2022-11-08T10:37:45.102Z,101582.00
2022-11-08T10:40:12.783Z,101573.34
2022-11-08T10:42:53.575Z,101566.88
2022-11-08T10:45:21.877Z,101556.75
2022-11-08T10:47:50.127Z,101563.09
2022-11-08T10:50:20.759Z,101555.94
2022-11-08T10:53:00.204Z,101563.19
2022-11-08T10:55:36.915Z,101561.22
2022-11-08T10:58:24.990Z,101560.28
2022-11-08T11:01:17.219Z,101554.53
2022-11-08T11:03:46.913Z,101562.94
2022-11-08T11:06:32.835Z,101546.09
2022-11-08T11:09:04.803Z,101557.19
2022-11-08T11:11:32.343Z,101551.00
2022-11-08T11:14:18.419Z,101554.94
2022-11-08T11:16:53.405Z,101542.16
2022-11-08T11:19:21.521Z,101536.88
2022-11-08T11:21:58.178Z,101542.25
2022-11-08T11:24:26.081Z,101540.94
2022-11-08T11:26:56.719Z,101539.88
2022-11-08T11:29:28.970Z,101530.63
2022-11-08T11:31:58.102Z,101525.00
2022-11-08T11:34:49.240Z,101515.59
2022-11-08T11:37:22.675Z,101519.44
2022-11-08T11:40:03.956Z,101500.94
2022-11-08T11:42:47.625Z,101507.53
2022-11-08T11:45:20.356Z,101493.97
2022-11-08T11:47:54.590Z,101499.63
2022-11-08T11:50:36.125Z,101493.56
2022-11-08T11:53:07.278Z,101483.47
2022-11-08T11:55:57.003Z,101484.25
2022-11-08T11:59:05.014Z,101481.09
2022-11-08T12:02:10.627Z,101490.50
2022-11-08T12:05:03.049Z,101474.97
2022-11-08T12:07:33.194Z,101484.03
2022-11-08T12:10:15.105Z,101478.59
2022-11-08T12:12:42.738Z,101468.09
2022-11-08T12:15:34.673Z,101470.59
2022-11-08T12:18:43.528Z,101457.22
2022-11-08T12:21:35.698Z,101471.75
2022-11-08T12:24:09.886Z,101466.06
2022-11-08T12:27:01.685Z,101454.34
2022-11-08T12:29:48.072Z,101456.53
2022-11-08T12:32:31.922Z,101459.56
2022-11-08T12:35:05.450Z,101448.38
2022-11-08T12:37:39.033Z,101445.34
2022-11-08T12:40:21.311Z,101445.41
2022-11-08T12:42:57.828Z,101445.72
2022-11-08T12:45:31.581Z,101443.59
2022-11-08T12:48:20.532Z,101435.53
2022-11-08T12:51:07.218Z,101423.63
2022-11-08T12:54:04.058Z,101424.56
2022-11-08T12:56:42.946Z,101427.66
2022-11-08T12:59:26.048Z,101424.38
2022-11-08T13:01:55.823Z,101422.28
2022-11-08T13:04:56.251Z,101414.47
2022-11-08T13:07:26.848Z,101420.56
2022-11-08T13:10:00.667Z,101417.31
2022-11-08T13:12:37.973Z,101405.97
2022-11-08T13:15:16.550Z,101407.06
2022-11-08T13:18:24.383Z,101411.22
2022-11-08T13:20:52.021Z,101407.53
2022-11-08T13:23:29.781Z,101406.03
2022-11-08T13:26:21.956Z,101418.66
2022-11-08T13:28:50.826Z,101420.22
2022-11-08T13:31:31.325Z,101415.84
2022-11-08T13:34:20.426Z,101417.19
2022-11-08T13:36:57.560Z,101418.38
2022-11-08T13:39:49.998Z,101421.66
2022-11-08T13:42:18.824Z,101422.47
2022-11-08T13:44:55.434Z,101425.97
2022-11-08T13:47:43.584Z,101432.75
2022-11-08T13:50:30.532Z,101425.28
2022-11-08T13:53:44.084Z,101424.22
2022-11-08T13:56:13.099Z,101425.19
2022-11-08T13:58:44.379Z,101430.66
2022-11-08T14:01:18.591Z,101418.41
2022-11-08T14:03:46.593Z,101429.19
2022-11-08T14:06:20.040Z,101427.31
2022-11-08T14:08:54.128Z,101427.31
2022-11-08T14:11:27.979Z,101428.56
2022-11-08T14:14:24.747Z,101429.66
2022-11-08T14:17:30.018Z,101419.03
2022-11-08T14:20:22.831Z,101427.59
2022-11-08T14:22:51.592Z,101422.47
2022-11-08T14:25:29.127Z,101421.94
2022-11-08T14:27:56.847Z,101423.34
2022-11-08T14:30:24.940Z,101408.75
2022-11-08T14:33:14.162Z,101412.41
2022-11-08T14:35:41.868Z,101414.34
2022-11-08T14:38:15.619Z,101414.00
2022-11-08T14:41:04.742Z,101411.88
2022-11-08T14:43:42.620Z,101410.19
2022-11-08T14:46:16.486Z,101421.06
2022-11-08T14:48:54.212Z,101423.75
2022-11-08T14:51:21.892Z,101422.16
2022-11-08T14:53:55.448Z,101417.97
2022-11-08T14:56:25.798Z,101417.28
2022-11-08T14:58:55.662Z,101418.81
2022-11-08T15:01:26.169Z,101422.16
2022-11-08T15:03:56.047Z,101418.91
2022-11-08T15:06:35.083Z,101414.25
2022-11-08T15:09:05.141Z,101415.03
2022-11-08T15:11:40.135Z,101416.19
2022-11-08T15:14:11.660Z,101406.59
2022-11-08T15:16:45.200Z,101407.00
2022-11-08T15:19:32.135Z,101401.19
2022-11-08T15:22:02.716Z,101412.91
2022-11-08T15:24:35.811Z,101414.97
2022-11-08T15:27:08.314Z,101417.94
2022-11-08T15:30:09.453Z,101414.41
2022-11-08T15:32:40.254Z,101414.31
2022-11-08T15:35:39.302Z,101408.03
2022-11-08T15:38:21.105Z,101412.13
2022-11-08T15:40:55.823Z,101415.03
2022-11-08T15:43:32.713Z,101407.84
2022-11-08T15:46:02.332Z,101404.84
2022-11-08T15:48:30.452Z,101397.84
2022-11-08T15:50:58.231Z,101406.25
2022-11-08T15:53:27.432Z,101402.13
2022-11-08T15:56:02.301Z,101401.84
2022-11-08T15:58:39.933Z,101400.94
2022-11-08T16:01:17.637Z,101407.53
2022-11-08T16:03:46.712Z,101411.94
2022-11-08T16:06:15.009Z,101407.97
2022-11-08T16:08:42.554Z,101410.22
2022-11-08T16:11:17.615Z,101414.94
2022-11-08T16:13:45.809Z,101412.75
2022-11-08T16:16:14.656Z,101410.13
2022-11-08T16:18:43.020Z,101418.47
2022-11-08T16:21:12.304Z,101419.75
2022-11-08T16:23:40.717Z,101420.31
2022-11-08T16:26:15.865Z,101417.47
2022-11-08T16:28:44.194Z,101430.13
2022-11-08T16:31:14.409Z,101423.50
2022-11-08T16:33:44.138Z,101418.13
2022-11-08T16:36:19.955Z,101423.81
2022-11-08T16:38:53.606Z,101427.44
2022-11-08T16:41:22.313Z,101424.06
2022-11-08T16:43:49.899Z,101425.31
2022-11-08T16:46:19.951Z,101426.41
2022-11-08T16:48:58.993Z,101424.72
2022-11-08T16:51:26.811Z,101424.59
2022-11-08T16:53:54.482Z,101425.44
2022-11-08T16:56:22.392Z,101440.66
2022-11-08T16:58:50.522Z,101439.50
2022-11-08T17:01:23.381Z,101432.88
2022-11-08T17:03:51.392Z,101439.81
2022-11-08T17:06:19.115Z,101441.81
2022-11-08T17:08:47.548Z,101439.28
2022-11-08T17:11:21.295Z,101441.72
2022-11-08T17:13:50.174Z,101447.00
2022-11-08T17:16:18.861Z,101445.63
2022-11-08T17:18:52.200Z,101444.03
2022-11-08T17:21:43.711Z,101449.72
2022-11-08T17:24:08.832Z,101447.63
2022-11-08T17:26:36.480Z,101461.13
2022-11-08T17:29:06.554Z,101451.81
2022-11-08T17:31:34.152Z,101465.75
2022-11-08T17:34:01.740Z,101468.94
2022-11-08T17:36:29.744Z,101479.25
2022-11-08T17:38:58.260Z,101486.72
2022-11-08T17:41:25.878Z,101488.50
2022-11-08T17:43:53.801Z,101490.09
2022-11-08T17:46:21.563Z,101488.72
2022-11-08T17:48:49.112Z,101493.53
2022-11-08T17:51:17.737Z,101485.44
2022-11-08T17:53:45.752Z,101496.31
2022-11-08T17:56:13.308Z,101492.81
2022-11-08T17:58:41.258Z,101489.88
2022-11-08T18:01:09.060Z,101494.31
2022-11-08T18:03:37.125Z,101496.16
2022-11-08T18:06:07.754Z,101508.78
2022-11-08T18:08:35.996Z,101508.69
2022-11-08T18:11:04.582Z,101498.66
2022-11-08T18:13:32.652Z,101506.03
2022-11-08T18:16:12.078Z,101500.03
2022-11-08T18:18:40.977Z,101493.50
2022-11-08T18:21:10.037Z,101493.28
2022-11-08T18:23:40.984Z,101491.19
2022-11-08T18:26:08.844Z,101484.84
2022-11-08T18:28:37.601Z,101493.72
2022-11-08T18:31:11.856Z,101496.63
2022-11-08T18:33:40.615Z,101493.09
2022-11-08T18:36:10.945Z,101496.44
2022-11-08T18:38:40.510Z,101498.03
2022-11-08T18:41:08.475Z,101489.47
2022-11-08T18:43:36.643Z,101501.22
2022-11-08T18:46:06.142Z,101489.81
2022-11-08T18:48:35.705Z,101493.53
2022-11-08T18:51:05.840Z,101497.31
2022-11-08T18:53:34.784Z,101488.31
2022-11-08T18:56:02.825Z,101489.63
2022-11-08T18:58:30.592Z,101486.75
2022-11-08T19:00:58.962Z,101488.22
2022-11-08T19:03:28.217Z,101479.84
2022-11-08T19:05:56.822Z,101479.50
2022-11-08T19:08:27.212Z,101475.25
2022-11-08T19:11:01.167Z,101482.22
2022-11-08T19:13:31.280Z,101486.03
2022-11-08T19:16:16.148Z,101484.34
2022-11-08T19:18:45.250Z,101492.63
2022-11-08T19:21:15.896Z,101498.34
2022-11-08T19:23:45.941Z,101485.75
2022-11-08T19:26:17.413Z,101484.22
2022-11-08T19:28:46.262Z,101493.91
2022-11-08T19:31:16.713Z,101490.34
2022-11-08T19:33:44.875Z,101487.81
2022-11-08T19:36:16.206Z,101482.91
2022-11-08T19:38:44.112Z,101492.53
2022-11-08T19:41:18.526Z,101486.75
2022-11-08T19:43:47.232Z,101483.59
2022-11-08T19:46:20.801Z,101480.09
2022-11-08T19:48:50.267Z,101478.41
2022-11-08T19:51:27.720Z,101470.94
2022-11-08T19:54:01.117Z,101484.22
2022-11-08T19:56:50.536Z,101484.53
2022-11-08T19:59:18.270Z,101482.22
2022-11-08T20:01:46.990Z,101482.78
2022-11-08T20:04:15.363Z,101481.63
2022-11-08T20:06:43.500Z,101485.75
2022-11-08T20:09:12.142Z,101483.13
2022-11-08T20:11:41.523Z,101479.41
2022-11-08T20:14:12.562Z,101479.53
2022-11-08T20:16:46.704Z,101487.00
2022-11-08T20:19:18.110Z,101481.81
2022-11-08T20:21:46.984Z,101486.91
2022-11-08T20:24:15.722Z,101497.63
2022-11-08T20:26:43.989Z,101499.75
2022-11-08T20:29:12.233Z,101506.50
2022-11-08T20:31:42.523Z,101498.94
2022-11-08T20:34:12.904Z,101492.06
2022-11-08T20:36:41.886Z,101499.53
2022-11-08T20:39:16.058Z,101509.34
2022-11-08T20:41:44.106Z,101500.25
2022-11-08T20:44:12.703Z,101496.91
2022-11-08T20:46:41.153Z,101500.16
2022-11-08T20:49:09.196Z,101498.03
2022-11-08T20:51:37.472Z,101501.09
2022-11-08T20:54:05.297Z,101494.03
2022-11-08T20:56:32.935Z,101493.44
2022-11-08T20:59:01.754Z,101498.16
2022-11-08T21:01:33.224Z,101494.03
2022-11-08T21:04:01.260Z,101503.91
2022-11-08T21:06:32.940Z,101496.19
2022-11-08T21:09:19.609Z,101504.19
2022-11-08T21:11:52.338Z,101505.63
2022-11-08T21:14:22.702Z,101507.06
2022-11-08T21:17:21.389Z,101497.28
2022-11-08T21:19:39.399Z,101496.28
2022-11-08T21:22:17.188Z,101492.22
2022-11-08T21:24:47.707Z,101492.34
2022-11-08T21:27:18.112Z,101490.25
2022-11-08T21:29:46.166Z,101492.34
2022-11-08T21:32:16.189Z,101495.25
2022-11-08T21:34:46.530Z,101492.78
2022-11-08T21:37:15.315Z,101489.59
2022-11-08T21:39:43.060Z,101491.41
2022-11-08T21:42:10.700Z,101489.72
2022-11-08T21:44:38.317Z,101493.19
2022-11-08T21:47:06.815Z,101488.38
2022-11-08T21:49:34.375Z,101487.81
2022-11-08T21:52:03.709Z,101484.31
2022-11-08T21:54:31.355Z,101481.25
2022-11-08T21:56:59.166Z,101481.59
2022-11-08T21:59:27.416Z,101488.22
2022-11-08T22:01:55.656Z,101499.63
2022-11-08T22:04:23.273Z,101504.50
2022-11-08T22:06:50.804Z,101484.69
2022-11-08T22:09:18.851Z,101481.09
2022-11-08T22:11:46.373Z,101484.00
2022-11-08T22:14:16.896Z,101474.94
2022-11-08T22:16:44.500Z,101490.66
2022-11-08T22:19:13.111Z,101491.25
2022-11-08T22:21:43.370Z,101490.84
2022-11-08T22:24:13.859Z,101483.69
2022-11-08T22:26:41.961Z,101486.72
2022-11-08T22:29:10.563Z,101479.56
2022-11-08T22:31:38.619Z,101479.38
2022-11-08T22:34:10.825Z,101488.53
2022-11-08T22:36:45.036Z,101482.44
2022-11-08T22:39:15.356Z,101482.91
2022-11-08T22:41:44.400Z,101482.78
2022-11-08T22:44:13.320Z,101478.59
2022-11-08T22:46:45.319Z,101470.88
2022-11-08T22:49:13.963Z,101470.78
2022-11-08T22:51:42.914Z,101473.50
2022-11-08T22:54:11.551Z,101467.72
2022-11-08T22:56:40.327Z,101473.69
2022-11-08T22:59:08.736Z,101476.44
2022-11-08T23:01:36.553Z,101471.63
2022-11-08T23:04:04.252Z,101471.97
2022-11-08T23:06:32.198Z,101470.34
2022-11-08T23:09:00.360Z,101468.66
2022-11-08T23:11:46.393Z,101472.00
2022-11-08T23:14:37.140Z,101465.34
2022-11-08T23:17:08.331Z,101457.91
2022-11-08T23:19:54.552Z,101461.47
2022-11-08T23:22:40.943Z,101463.81
2022-11-08T23:25:09.278Z,101471.31
2022-11-08T23:27:55.748Z,101477.31
2022-11-08T23:30:41.862Z,101462.81
2022-11-08T23:33:09.391Z,101471.66
2022-11-08T23:35:37.052Z,101467.03
2022-11-08T23:38:05.069Z,101465.53
2022-11-08T23:40:51.601Z,101458.78
2022-11-08T23:43:38.890Z,101463.41
2022-11-08T23:46:12.627Z,101457.91
2022-11-08T23:48:40.647Z,101460.00
2022-11-08T23:51:08.706Z,101459.31
2022-11-08T23:53:37.617Z,101457.84
2022-11-08T23:56:06.697Z,101458.22
2022-11-08T23:58:34.748Z,101461.69
